createdAt,value
2022-08-26T00:00:30.745Z,64.00
2022-08-26T00:02:05.243Z,64.00
2022-08-26T00:03:37.084Z,64.00
2022-08-26T00:05:08.933Z,64.00
2022-08-26T00:06:42.595Z,64.20
2022-08-26T00:08:20.280Z,64.20
2022-08-26T00:09:54.477Z,64.40
2022-08-26T00:11:27.672Z,64.30
2022-08-26T00:12:59.851Z,64.50
2022-08-26T00:14:31.651Z,64.60
2022-08-26T00:16:05.455Z,64.70
2022-08-26T00:17:37.350Z,64.70
2022-08-26T00:19:12.338Z,64.70
2022-08-26T00:20:45.083Z,64.70
2022-08-26T00:22:20.195Z,64.90
2022-08-26T00:23:53.519Z,65.00
2022-08-26T00:25:25.587Z,65.10
2022-08-26T00:26:57.265Z,65.10
2022-08-26T00:28:29.137Z,65.30
2022-08-26T00:30:07.923Z,65.70
2022-08-26T00:31:40.718Z,65.70
2022-08-26T00:33:12.516Z,65.60
2022-08-26T00:34:44.247Z,65.70
2022-08-26T00:36:20.218Z,65.70
2022-08-26T00:37:52.952Z,65.70
2022-08-26T00:39:24.736Z,66.00
2022-08-26T00:40:57.460Z,65.90
2022-08-26T00:42:29.281Z,66.00
2022-08-26T00:44:01.329Z,65.90
2022-08-26T00:45:47.064Z,66.00
2022-08-26T00:47:33.172Z,66.40
2022-08-26T00:49:11.809Z,66.30
2022-08-26T00:50:51.277Z,66.30
2022-08-26T00:52:24.211Z,66.40
2022-08-26T00:54:10.756Z,66.20
2022-08-26T00:55:43.415Z,66.50
2022-08-26T00:57:18.512Z,66.50
2022-08-26T00:58:51.701Z,66.50
2022-08-26T01:00:27.248Z,66.70
2022-08-26T01:01:59.283Z,66.70
2022-08-26T01:03:33.541Z,66.90
2022-08-26T01:05:07.787Z,66.70
2022-08-26T01:06:39.927Z,66.90
2022-08-26T01:08:16.007Z,67.10
2022-08-26T01:09:47.980Z,67.10
2022-08-26T01:11:21.174Z,67.20
2022-08-26T01:12:58.063Z,67.10
2022-08-26T01:14:35.080Z,67.20
2022-08-26T01:16:12.792Z,67.40
2022-08-26T01:17:45.763Z,67.40
2022-08-26T01:19:44.385Z,67.30
2022-08-26T01:21:40.596Z,67.80
2022-08-26T01:23:14.928Z,67.90
2022-08-26T01:24:49.055Z,67.90
2022-08-26T01:26:35.485Z,68.00
2022-08-26T01:28:12.587Z,68.10
2022-08-26T01:29:46.318Z,67.90
2022-08-26T01:31:24.829Z,68.10
2022-08-26T01:32:59.219Z,68.30
2022-08-26T01:34:37.868Z,68.40
2022-08-26T01:36:10.917Z,68.40
2022-08-26T01:37:42.680Z,68.50
2022-08-26T01:39:14.430Z,68.60
2022-08-26T01:40:46.950Z,68.60
2022-08-26T01:42:20.822Z,68.70
2022-08-26T01:43:55.760Z,68.80
2022-08-26T01:45:30.913Z,69.10
2022-08-26T01:47:05.182Z,69.10
2022-08-26T01:48:40.514Z,69.10
2022-08-26T01:50:27.856Z,69.20
2022-08-26T01:52:01.526Z,69.30
2022-08-26T01:53:35.390Z,69.20
2022-08-26T01:55:07.782Z,69.20
2022-08-26T01:56:39.715Z,69.20
2022-08-26T01:58:20.831Z,69.30
2022-08-26T01:59:56.116Z,69.30
2022-08-26T02:01:30.140Z,69.40
2022-08-26T02:03:17.074Z,69.60
2022-08-26T02:04:53.131Z,69.60
2022-08-26T02:06:24.874Z,69.50
2022-08-26T02:07:57.275Z,69.60
2022-08-26T02:09:29.119Z,69.60
2022-08-26T02:11:02.798Z,69.60
2022-08-26T02:12:34.755Z,69.60
2022-08-26T02:14:29.463Z,69.70
2022-08-26T02:16:03.786Z,69.90
2022-08-26T02:17:43.266Z,69.80
2022-08-26T02:19:18.828Z,70.00
2022-08-26T02:20:55.952Z,70.00
2022-08-26T02:22:30.518Z,70.00
2022-08-26T02:24:14.981Z,69.90
2022-08-26T02:25:56.277Z,70.10
2022-08-26T02:27:32.834Z,70.00
2022-08-26T02:29:32.761Z,69.90
2022-08-26T02:31:04.832Z,70.30
2022-08-26T02:32:36.600Z,70.10
2022-08-26T02:34:10.889Z,70.00
2022-08-26T02:35:43.189Z,70.00
2022-08-26T02:37:15.033Z,70.00
2022-08-26T02:38:49.695Z,70.10
2022-08-26T02:40:32.386Z,70.00
2022-08-26T02:42:05.183Z,70.30
2022-08-26T02:43:37.205Z,70.30
2022-08-26T02:45:10.511Z,70.20
2022-08-26T02:46:47.138Z,70.30
2022-08-26T02:48:21.302Z,70.30
2022-08-26T02:49:53.241Z,70.30
2022-08-26T02:51:25.450Z,70.20
2022-08-26T02:52:57.188Z,70.30
2022-08-26T02:54:29.618Z,70.30
2022-08-26T02:56:01.861Z,70.30
2022-08-26T02:57:34.959Z,70.20
2022-08-26T02:59:06.753Z,70.20
2022-08-26T03:00:39.523Z,70.40
2022-08-26T03:02:24.960Z,70.50
2022-08-26T03:03:58.159Z,70.40
2022-08-26T03:05:30.725Z,70.50
2022-08-26T03:07:04.691Z,70.30
2022-08-26T03:08:36.380Z,70.30
2022-08-26T03:10:08.991Z,70.20
2022-08-26T03:11:40.915Z,70.30
2022-08-26T03:13:12.771Z,70.40
2022-08-26T03:14:44.547Z,70.30
2022-08-26T03:16:17.120Z,70.30
2022-08-26T03:17:50.361Z,70.50
2022-08-26T03:19:24.467Z,70.50
2022-08-26T03:20:56.365Z,70.50
2022-08-26T03:22:30.103Z,70.50
2022-08-26T03:24:01.969Z,70.50
2022-08-26T03:25:33.824Z,70.50
2022-08-26T03:27:07.353Z,70.50
2022-08-26T03:28:58.167Z,70.50
2022-08-26T03:30:44.738Z,70.50
2022-08-26T03:32:17.432Z,70.50
2022-08-26T03:33:49.183Z,70.50
2022-08-26T03:35:24.162Z,70.60
2022-08-26T03:36:56.392Z,70.50
2022-08-26T03:38:28.081Z,70.50
2022-08-26T03:40:01.054Z,70.30
2022-08-26T03:41:35.805Z,70.50
2022-08-26T03:43:11.691Z,70.50
2022-08-26T03:44:43.437Z,70.60
2022-08-26T03:46:16.307Z,70.60
2022-08-26T03:47:49.338Z,70.60
2022-08-26T03:49:23.455Z,70.60
2022-08-26T03:50:55.146Z,70.60
2022-08-26T03:52:27.273Z,70.60
2022-08-26T03:54:00.602Z,70.50
2022-08-26T03:55:33.182Z,70.60
2022-08-26T03:57:05.179Z,70.50
2022-08-26T03:58:38.343Z,70.50
2022-08-26T04:00:18.415Z,70.70
2022-08-26T04:01:50.387Z,70.60
2022-08-26T04:03:41.717Z,70.60
2022-08-26T04:05:17.353Z,70.50
2022-08-26T04:06:50.000Z,70.60
2022-08-26T04:08:21.864Z,70.50
2022-08-26T04:09:57.685Z,70.40
2022-08-26T04:11:34.058Z,70.50
2022-08-26T04:13:07.338Z,70.50
2022-08-26T04:14:39.771Z,70.50
2022-08-26T04:16:11.613Z,70.50
2022-08-26T04:17:47.283Z,70.50
2022-08-26T04:19:20.323Z,70.50
2022-08-26T04:20:52.015Z,70.60
2022-08-26T04:22:24.067Z,70.60
2022-08-26T04:23:56.764Z,70.50
2022-08-26T04:25:30.084Z,70.50
2022-08-26T04:27:03.377Z,70.50
2022-08-26T04:28:35.445Z,70.50
2022-08-26T04:30:08.924Z,70.60
2022-08-26T04:31:42.012Z,70.50
2022-08-26T04:33:14.030Z,70.70
2022-08-26T04:34:45.910Z,70.60
2022-08-26T04:36:20.185Z,70.70
2022-08-26T04:37:52.117Z,70.60
2022-08-26T04:39:24.071Z,70.70
2022-08-26T04:40:57.996Z,70.70
2022-08-26T04:42:29.867Z,70.80
2022-08-26T04:44:02.485Z,70.70
2022-08-26T04:45:37.519Z,70.70
2022-08-26T04:47:10.527Z,70.70
2022-08-26T04:48:43.096Z,70.70
2022-08-26T04:50:15.232Z,70.70
2022-08-26T04:51:49.229Z,70.70
2022-08-26T04:53:21.386Z,70.70
2022-08-26T04:54:53.096Z,70.70
2022-08-26T04:56:31.355Z,70.80
2022-08-26T04:58:03.968Z,70.80
2022-08-26T04:59:39.140Z,70.70
2022-08-26T05:01:11.377Z,70.70
2022-08-26T05:02:43.664Z,70.70
2022-08-26T05:04:18.926Z,70.70
2022-08-26T05:05:51.366Z,70.70
2022-08-26T05:07:23.097Z,70.60
2022-08-26T05:08:54.978Z,70.70
2022-08-26T05:10:26.736Z,70.60
2022-08-26T05:11:58.409Z,70.70
2022-08-26T05:13:30.292Z,70.70
2022-08-26T05:15:02.055Z,70.70
2022-08-26T05:16:34.920Z,70.80
2022-08-26T05:18:07.945Z,70.80
2022-08-26T05:19:42.818Z,70.80
2022-08-26T05:21:20.197Z,70.90
2022-08-26T05:22:51.934Z,70.90
2022-08-26T05:24:25.247Z,70.90
2022-08-26T05:25:59.165Z,70.90
2022-08-26T05:27:32.059Z,70.90
2022-08-26T05:29:06.433Z,71.00
2022-08-26T05:30:39.733Z,71.00
2022-08-26T05:32:12.123Z,71.10
2022-08-26T05:33:44.386Z,71.10
2022-08-26T05:35:17.331Z,71.10
2022-08-26T05:36:49.135Z,71.10
2022-08-26T05:38:22.271Z,71.20
2022-08-26T05:39:54.065Z,71.20
2022-08-26T05:41:34.614Z,71.20
2022-08-26T05:43:11.823Z,71.20
2022-08-26T05:44:55.324Z,71.30
2022-08-26T05:46:28.636Z,71.20
2022-08-26T05:48:00.353Z,71.30
2022-08-26T05:49:32.343Z,71.30
2022-08-26T05:51:06.933Z,71.30
2022-08-26T05:52:38.640Z,71.30
2022-08-26T05:54:10.939Z,71.30
2022-08-26T05:55:45.427Z,71.30
2022-08-26T05:57:17.189Z,71.50
2022-08-26T05:58:50.614Z,71.50
2022-08-26T06:00:22.325Z,71.50
2022-08-26T06:01:56.748Z,71.60
2022-08-26T06:03:29.821Z,71.60
2022-08-26T06:05:01.649Z,71.60
2022-08-26T06:06:36.568Z,71.70
2022-08-26T06:08:14.379Z,71.60
2022-08-26T06:09:46.152Z,71.50
2022-08-26T06:11:21.855Z,71.60
2022-08-26T06:12:56.321Z,71.50
2022-08-26T06:14:28.319Z,71.50
2022-08-26T06:16:07.883Z,71.70
2022-08-26T06:17:40.344Z,71.60
2022-08-26T06:19:15.295Z,71.90
2022-08-26T06:20:57.980Z,71.90
2022-08-26T06:22:48.427Z,71.80
2022-08-26T06:24:38.963Z,71.60
2022-08-26T06:26:13.673Z,71.60
2022-08-26T06:27:45.367Z,71.60
2022-08-26T06:29:24.179Z,71.70
2022-08-26T06:30:56.618Z,71.70
2022-08-26T06:32:28.551Z,71.90
2022-08-26T06:34:02.052Z,71.80
2022-08-26T06:35:41.708Z,71.70
2022-08-26T06:37:14.244Z,71.80
2022-08-26T06:38:47.997Z,71.80
2022-08-26T06:40:20.911Z,71.80
2022-08-26T06:41:52.886Z,71.80
2022-08-26T06:43:27.740Z,71.80
2022-08-26T06:45:01.180Z,71.80
2022-08-26T06:46:33.770Z,71.80
2022-08-26T06:48:06.951Z,71.90
2022-08-26T06:49:38.646Z,71.90
2022-08-26T06:51:15.212Z,71.80
2022-08-26T06:52:46.920Z,71.80
2022-08-26T06:54:20.283Z,71.80
2022-08-26T06:55:52.005Z,71.80
2022-08-26T06:57:24.733Z,71.90
2022-08-26T06:58:56.685Z,72.00
2022-08-26T07:00:28.356Z,72.00
2022-08-26T07:02:00.177Z,71.80
2022-08-26T07:03:35.033Z,71.80
2022-08-26T07:05:11.660Z,71.80
2022-08-26T07:06:49.232Z,71.80
2022-08-26T07:08:22.356Z,71.70
2022-08-26T07:09:54.698Z,71.70
2022-08-26T07:11:26.448Z,71.70
2022-08-26T07:12:59.639Z,71.70
2022-08-26T07:14:32.157Z,71.70
2022-08-26T07:16:08.367Z,71.70
2022-08-26T07:17:41.436Z,71.60
2022-08-26T07:19:13.481Z,71.40
2022-08-26T07:20:45.680Z,71.40
2022-08-26T07:22:18.641Z,71.40
2022-08-26T07:23:50.781Z,71.60
2022-08-26T07:25:22.462Z,71.60
2022-08-26T07:26:54.169Z,71.70
2022-08-26T07:28:26.053Z,71.70
2022-08-26T07:29:57.794Z,71.80
2022-08-26T07:31:39.203Z,71.70
2022-08-26T07:33:11.809Z,71.70
2022-08-26T07:34:43.586Z,71.80
2022-08-26T07:36:17.497Z,71.70
2022-08-26T07:37:51.842Z,71.60
2022-08-26T07:39:26.575Z,71.50
2022-08-26T07:40:58.457Z,71.30
2022-08-26T07:42:30.254Z,71.20
2022-08-26T07:44:02.212Z,71.10
2022-08-26T07:45:36.125Z,71.00
2022-08-26T07:47:10.113Z,70.90
2022-08-26T07:48:56.307Z,70.70
2022-08-26T07:50:49.395Z,70.70
2022-08-26T07:52:21.668Z,70.40
2022-08-26T07:53:57.596Z,70.60
2022-08-26T07:55:30.586Z,70.70
2022-08-26T07:57:05.224Z,71.00
2022-08-26T07:58:41.140Z,71.30
2022-08-26T08:00:16.674Z,71.40
2022-08-26T08:01:48.721Z,71.50
2022-08-26T08:03:20.658Z,71.50
2022-08-26T08:04:53.343Z,71.70
2022-08-26T08:06:27.290Z,71.70
2022-08-26T08:08:26.825Z,71.80
2022-08-26T08:09:56.265Z,71.80
2022-08-26T08:11:30.800Z,71.90
2022-08-26T08:13:03.943Z,71.80
2022-08-26T08:14:37.228Z,71.80
2022-08-26T08:16:17.055Z,71.80
2022-08-26T08:17:50.356Z,71.60
2022-08-26T08:19:24.338Z,71.70
2022-08-26T08:21:21.690Z,71.60
2022-08-26T08:22:54.668Z,71.60
2022-08-26T08:24:26.325Z,71.70
2022-08-26T08:26:02.506Z,71.50
2022-08-26T08:27:35.354Z,71.30
2022-08-26T08:29:08.685Z,71.10
2022-08-26T08:30:41.142Z,71.20
2022-08-26T08:32:15.477Z,71.20
2022-08-26T08:33:47.738Z,71.10
2022-08-26T08:35:24.007Z,71.30
2022-08-26T08:36:57.041Z,71.40
2022-08-26T08:38:29.343Z,71.40
2022-08-26T08:40:01.497Z,71.30
2022-08-26T08:41:45.106Z,71.40
2022-08-26T08:43:38.294Z,71.40
2022-08-26T08:45:33.333Z,71.40
2022-08-26T08:47:25.982Z,71.40
2022-08-26T08:48:59.834Z,71.40
2022-08-26T08:50:42.473Z,71.30
2022-08-26T08:52:29.425Z,71.30
2022-08-26T08:54:02.655Z,71.50
2022-08-26T08:55:58.113Z,71.40
2022-08-26T08:58:05.396Z,71.50
2022-08-26T08:59:44.875Z,71.60
2022-08-26T09:01:44.443Z,71.50
2022-08-26T09:03:49.795Z,71.50
2022-08-26T09:05:25.279Z,71.40
2022-08-26T09:06:59.862Z,71.40
2022-08-26T09:08:35.717Z,71.40
2022-08-26T09:10:25.825Z,71.50
2022-08-26T09:11:58.650Z,71.50
2022-08-26T09:13:31.727Z,71.50
2022-08-26T09:15:45.165Z,71.40
2022-08-26T09:17:19.872Z,71.40
2022-08-26T09:19:25.353Z,71.30
2022-08-26T09:21:03.343Z,71.50
2022-08-26T09:22:38.301Z,71.50
2022-08-26T09:24:11.229Z,71.30
2022-08-26T09:26:01.127Z,71.10
2022-08-26T09:27:44.399Z,71.10
2022-08-26T09:29:24.293Z,71.20
2022-08-26T09:31:13.059Z,71.10
2022-08-26T09:33:10.039Z,71.30
2022-08-26T09:35:01.439Z,71.30
2022-08-26T09:36:54.129Z,71.10
2022-08-26T09:38:34.005Z,71.00
2022-08-26T09:40:14.479Z,70.90
2022-08-26T09:42:03.642Z,70.90
2022-08-26T09:43:38.109Z,71.00
2022-08-26T09:45:12.826Z,71.00
2022-08-26T09:46:58.900Z,70.90
2022-08-26T09:48:36.922Z,71.20
2022-08-26T09:50:28.681Z,71.20
2022-08-26T09:52:14.174Z,71.10
2022-08-26T09:53:57.994Z,71.20
2022-08-26T09:55:29.734Z,71.20
2022-08-26T09:57:21.053Z,71.10
2022-08-26T09:58:57.605Z,71.10
2022-08-26T10:00:31.697Z,71.10
2022-08-26T10:02:17.523Z,71.00
2022-08-26T10:03:51.230Z,71.00
2022-08-26T10:05:42.617Z,70.80
2022-08-26T10:07:21.218Z,70.70
2022-08-26T10:09:03.621Z,70.40
2022-08-26T10:10:42.257Z,70.20
2022-08-26T10:12:21.732Z,70.20
2022-08-26T10:14:12.714Z,70.30
2022-08-26T10:15:52.721Z,70.40
2022-08-26T10:17:40.322Z,70.40
2022-08-26T10:19:16.504Z,70.30
2022-08-26T10:21:03.178Z,70.10
2022-08-26T10:22:57.127Z,70.10
2022-08-26T10:24:42.947Z,70.10
2022-08-26T10:26:54.092Z,70.00
2022-08-26T10:28:41.275Z,70.20
2022-08-26T10:30:23.562Z,70.20
2022-08-26T10:32:03.383Z,70.20
2022-08-26T10:33:38.237Z,70.20
2022-08-26T10:35:13.895Z,70.50
2022-08-26T10:37:15.575Z,70.70
2022-08-26T10:38:48.482Z,70.70
2022-08-26T10:40:24.623Z,70.70
2022-08-26T10:42:02.444Z,70.70
2022-08-26T10:43:41.220Z,70.80
2022-08-26T10:45:16.732Z,70.90
2022-08-26T10:46:54.788Z,70.80
2022-08-26T10:48:46.689Z,70.80
2022-08-26T10:50:19.917Z,71.10
2022-08-26T10:52:17.802Z,70.90
2022-08-26T10:53:58.628Z,70.80
2022-08-26T10:55:37.049Z,70.60
2022-08-26T10:57:13.615Z,70.50
2022-08-26T10:59:01.362Z,70.40
2022-08-26T11:01:00.184Z,70.20
2022-08-26T11:02:47.164Z,70.20
2022-08-26T11:04:31.299Z,70.20
2022-08-26T11:06:18.888Z,70.20
2022-08-26T11:08:14.477Z,70.20
2022-08-26T11:09:47.269Z,70.20
2022-08-26T11:11:39.609Z,70.20
2022-08-26T11:13:12.052Z,70.30
2022-08-26T11:14:58.507Z,70.20
2022-08-26T11:16:48.115Z,70.20
2022-08-26T11:18:41.182Z,70.10
2022-08-26T11:20:22.418Z,70.10
2022-08-26T11:22:05.864Z,70.20
2022-08-26T11:23:44.781Z,70.20
2022-08-26T11:25:29.631Z,70.20
2022-08-26T11:27:01.965Z,70.20
2022-08-26T11:28:49.066Z,70.20
2022-08-26T11:30:20.740Z,70.20
2022-08-26T11:31:56.718Z,70.20
2022-08-26T11:33:43.982Z,70.20
2022-08-26T11:35:21.652Z,70.00
2022-08-26T11:36:58.260Z,70.00
2022-08-26T11:38:32.363Z,69.90
2022-08-26T11:40:09.026Z,70.00
2022-08-26T11:41:46.557Z,69.70
2022-08-26T11:43:22.951Z,69.60
2022-08-26T11:44:58.478Z,69.70
2022-08-26T11:46:35.649Z,69.70
2022-08-26T11:48:30.936Z,69.70
2022-08-26T11:50:11.396Z,69.70
2022-08-26T11:51:47.754Z,69.80
2022-08-26T11:53:20.164Z,69.90
2022-08-26T11:55:23.329Z,69.80
2022-08-26T11:56:57.895Z,69.80
2022-08-26T11:58:30.291Z,69.70
2022-08-26T12:00:03.190Z,69.70
2022-08-26T12:01:41.525Z,69.70
2022-08-26T12:03:19.547Z,69.60
2022-08-26T12:04:53.099Z,69.60
2022-08-26T12:06:30.300Z,69.70
2022-08-26T12:08:09.693Z,69.70
2022-08-26T12:10:00.492Z,69.70
2022-08-26T12:11:36.474Z,69.80
2022-08-26T12:13:17.660Z,69.80
2022-08-26T12:15:03.703Z,69.70
2022-08-26T12:16:39.052Z,69.80
2022-08-26T12:18:20.759Z,69.70
2022-08-26T12:20:01.518Z,69.70
2022-08-26T12:21:34.862Z,69.60
2022-08-26T12:23:07.034Z,69.80
2022-08-26T12:24:46.421Z,69.80
2022-08-26T12:26:35.402Z,69.80
2022-08-26T12:28:07.324Z,69.80
2022-08-26T12:29:39.218Z,70.00
2022-08-26T12:31:11.501Z,69.80
2022-08-26T12:33:22.686Z,69.80
2022-08-26T12:34:55.557Z,69.70
2022-08-26T12:36:34.926Z,69.80
2022-08-26T12:38:08.680Z,69.70
2022-08-26T12:39:43.022Z,69.80
2022-08-26T12:41:39.164Z,69.90
2022-08-26T12:43:17.079Z,69.80
2022-08-26T12:44:53.443Z,69.70
2022-08-26T12:46:28.696Z,69.80
2022-08-26T12:48:10.162Z,69.70
2022-08-26T12:49:43.580Z,69.60
2022-08-26T12:51:35.192Z,69.60
2022-08-26T12:53:09.719Z,69.50
2022-08-26T12:54:59.804Z,69.50
2022-08-26T12:56:40.844Z,69.50
2022-08-26T12:58:15.548Z,69.30
2022-08-26T12:59:47.345Z,69.30
2022-08-26T13:01:25.022Z,69.30
2022-08-26T13:02:57.899Z,69.50
2022-08-26T13:04:39.096Z,69.60
2022-08-26T13:06:15.633Z,69.60
2022-08-26T13:08:11.049Z,69.60
2022-08-26T13:09:43.121Z,69.60
2022-08-26T13:11:41.945Z,69.60
2022-08-26T13:13:14.040Z,69.50
2022-08-26T13:14:45.945Z,69.50
2022-08-26T13:16:22.286Z,69.50
2022-08-26T13:17:54.088Z,69.40
2022-08-26T13:19:30.068Z,69.50
2022-08-26T13:21:13.049Z,69.60
2022-08-26T13:22:44.815Z,69.50
2022-08-26T13:24:44.353Z,69.60
2022-08-26T13:26:16.799Z,69.60
2022-08-26T13:27:48.890Z,69.70
2022-08-26T13:29:20.686Z,69.60
2022-08-26T13:30:52.824Z,69.50
2022-08-26T13:32:27.592Z,69.50
2022-08-26T13:33:59.940Z,69.40
2022-08-26T13:35:32.569Z,69.50
2022-08-26T13:37:05.363Z,69.40
2022-08-26T13:38:37.275Z,69.30
2022-08-26T13:40:09.770Z,69.20
2022-08-26T13:41:43.179Z,69.30
2022-08-26T13:43:16.165Z,69.20
2022-08-26T13:44:50.590Z,69.30
2022-08-26T13:46:22.435Z,69.30
2022-08-26T13:47:54.273Z,69.40
2022-08-26T13:49:26.090Z,69.30
2022-08-26T13:50:57.883Z,69.20
2022-08-26T13:52:30.688Z,69.30
2022-08-26T13:54:03.366Z,69.30
2022-08-26T13:55:35.102Z,69.60
2022-08-26T13:57:06.869Z,69.60
2022-08-26T13:58:38.588Z,69.60
2022-08-26T14:00:11.625Z,69.50
2022-08-26T14:01:43.602Z,69.40
2022-08-26T14:03:15.359Z,69.40
2022-08-26T14:04:50.059Z,69.40
2022-08-26T14:06:22.308Z,69.40
2022-08-26T14:07:54.830Z,69.40
2022-08-26T14:09:26.601Z,69.20
2022-08-26T14:10:58.868Z,69.40
2022-08-26T14:12:30.569Z,69.30
2022-08-26T14:14:02.303Z,69.10
2022-08-26T14:15:37.843Z,69.10
2022-08-26T14:17:09.993Z,68.90
2022-08-26T14:18:46.190Z,68.80
2022-08-26T14:20:27.861Z,68.70
2022-08-26T14:22:00.613Z,68.60
2022-08-26T14:23:33.065Z,68.60
2022-08-26T14:25:05.813Z,68.60
2022-08-26T14:26:37.691Z,68.60
2022-08-26T14:28:09.444Z,68.60
2022-08-26T14:29:41.391Z,68.70
2022-08-26T14:31:13.351Z,68.70
2022-08-26T14:32:49.105Z,68.60
2022-08-26T14:34:22.902Z,68.70
2022-08-26T14:36:14.588Z,68.60
2022-08-26T14:37:46.439Z,68.60
2022-08-26T14:39:18.240Z,68.50
2022-08-26T14:40:49.960Z,68.40
2022-08-26T14:42:27.765Z,68.40
2022-08-26T14:44:10.850Z,68.30
2022-08-26T14:45:45.465Z,68.40
2022-08-26T14:47:17.922Z,68.30
2022-08-26T14:48:49.578Z,68.20
2022-08-26T14:50:23.986Z,68.30
2022-08-26T14:51:56.260Z,68.40
2022-08-26T14:53:46.440Z,68.50
2022-08-26T14:55:18.310Z,68.40
2022-08-26T14:56:54.887Z,68.40
2022-08-26T14:58:28.537Z,68.20
2022-08-26T15:00:07.503Z,68.10
2022-08-26T15:01:39.588Z,67.80
2022-08-26T15:03:11.509Z,68.00
2022-08-26T15:04:43.344Z,68.00
2022-08-26T15:06:16.338Z,67.90
2022-08-26T15:07:48.060Z,67.70
2022-08-26T15:09:20.177Z,67.70
2022-08-26T15:10:51.851Z,67.70
2022-08-26T15:12:23.650Z,67.60
2022-08-26T15:13:55.409Z,67.70
2022-08-26T15:15:28.423Z,67.70
2022-08-26T15:17:00.275Z,67.40
2022-08-26T15:18:32.019Z,67.30
2022-08-26T15:20:06.032Z,67.50
2022-08-26T15:21:37.936Z,67.60
2022-08-26T15:23:10.969Z,67.60
2022-08-26T15:24:43.209Z,67.60
2022-08-26T15:26:16.092Z,67.70
2022-08-26T15:27:48.584Z,67.80
2022-08-26T15:29:21.139Z,67.90
2022-08-26T15:30:52.883Z,67.90
2022-08-26T15:32:24.595Z,68.00
2022-08-26T15:34:02.377Z,68.10
2022-08-26T15:35:38.380Z,68.20
2022-08-26T15:37:12.069Z,68.50
2022-08-26T15:38:43.812Z,68.60
2022-08-26T15:40:15.678Z,68.70
2022-08-26T15:41:47.542Z,68.80
2022-08-26T15:43:28.711Z,68.70
2022-08-26T15:45:00.913Z,68.70
2022-08-26T15:46:36.449Z,68.80
2022-08-26T15:48:10.930Z,68.80
2022-08-26T15:49:42.843Z,68.80
2022-08-26T15:51:24.216Z,68.80
2022-08-26T15:52:56.281Z,68.60
2022-08-26T15:54:27.957Z,68.50
2022-08-26T15:56:01.518Z,68.60
2022-08-26T15:57:33.906Z,68.60
2022-08-26T15:59:08.163Z,68.40
2022-08-26T16:00:40.731Z,68.50
2022-08-26T16:02:12.590Z,68.50
2022-08-26T16:03:44.304Z,68.50
2022-08-26T16:05:19.057Z,68.40
2022-08-26T16:06:52.020Z,68.40
2022-08-26T16:08:23.922Z,68.50
2022-08-26T16:09:56.656Z,68.40
2022-08-26T16:11:28.562Z,68.30
2022-08-26T16:13:00.823Z,68.10
2022-08-26T16:14:32.767Z,68.20
2022-08-26T16:16:05.806Z,68.00
2022-08-26T16:17:37.688Z,67.70
2022-08-26T16:19:09.983Z,67.70
2022-08-26T16:21:12.758Z,67.70
2022-08-26T16:22:43.100Z,67.60
2022-08-26T16:24:14.899Z,67.40
2022-08-26T16:25:47.205Z,67.30
2022-08-26T16:27:18.876Z,67.10
2022-08-26T16:28:54.885Z,67.10
2022-08-26T16:30:26.615Z,66.90
2022-08-26T16:31:58.549Z,67.00
2022-08-26T16:33:30.334Z,66.80
2022-08-26T16:35:02.285Z,66.90
2022-08-26T16:36:37.637Z,67.00
2022-08-26T16:38:10.246Z,67.00
2022-08-26T16:39:45.091Z,66.90
2022-08-26T16:41:17.630Z,66.70
2022-08-26T16:42:50.632Z,66.70
2022-08-26T16:44:22.677Z,66.60
2022-08-26T16:45:58.709Z,66.70
2022-08-26T16:47:31.474Z,66.60
2022-08-26T16:49:04.487Z,66.80
2022-08-26T16:50:38.081Z,66.70
2022-08-26T16:52:11.318Z,66.80
2022-08-26T16:53:46.638Z,66.80
2022-08-26T16:55:18.993Z,67.00
2022-08-26T16:56:51.829Z,67.30
2022-08-26T16:58:23.818Z,67.40
2022-08-26T16:59:55.586Z,67.50
2022-08-26T17:01:30.661Z,67.50
2022-08-26T17:03:03.047Z,67.50
2022-08-26T17:04:34.810Z,67.50
2022-08-26T17:06:06.818Z,67.60
2022-08-26T17:07:38.701Z,67.50
2022-08-26T17:09:10.382Z,67.50
2022-08-26T17:12:14.716Z,67.60
2022-08-26T17:13:48.632Z,67.50
2022-08-26T17:15:23.542Z,67.60
2022-08-26T17:16:55.326Z,67.70
2022-08-26T17:18:29.819Z,67.60
2022-08-26T17:20:07.374Z,67.60
2022-08-26T17:21:39.771Z,67.70
2022-08-26T17:23:11.494Z,67.70
2022-08-26T17:24:43.286Z,67.40
2022-08-26T17:26:15.000Z,67.20
2022-08-26T17:27:46.990Z,67.20
2022-08-26T17:29:20.852Z,67.10
2022-08-26T17:30:52.788Z,67.00
2022-08-26T17:32:24.577Z,66.70
2022-08-26T17:33:56.685Z,66.60
2022-08-26T17:35:28.428Z,66.50
2022-08-26T17:37:00.551Z,66.50
2022-08-26T17:38:33.123Z,66.40
2022-08-26T17:40:08.511Z,66.30
2022-08-26T17:41:40.883Z,66.30
2022-08-26T17:43:12.881Z,66.30
2022-08-26T17:44:45.946Z,66.50
2022-08-26T17:46:17.768Z,66.30
2022-08-26T17:47:49.528Z,66.30
2022-08-26T17:49:21.335Z,66.30
2022-08-26T17:50:54.121Z,66.30
2022-08-26T17:52:26.155Z,66.30
2022-08-26T17:53:58.817Z,66.20
2022-08-26T17:55:30.682Z,66.30
2022-08-26T17:57:04.273Z,66.30
2022-08-26T17:58:51.393Z,66.40
2022-08-26T18:00:27.546Z,66.30
2022-08-26T18:01:59.648Z,66.30
2022-08-26T18:03:32.121Z,66.20
2022-08-26T18:05:05.336Z,66.30
2022-08-26T18:06:38.156Z,66.30
2022-08-26T18:08:09.883Z,66.30
2022-08-26T18:09:41.844Z,66.20
2022-08-26T18:11:17.729Z,66.20
2022-08-26T18:12:49.523Z,66.30
2022-08-26T18:14:23.792Z,66.20
2022-08-26T18:15:55.784Z,66.00
2022-08-26T18:17:30.587Z,66.20
2022-08-26T18:19:02.296Z,66.20
2022-08-26T18:20:35.077Z,66.10
2022-08-26T18:22:07.183Z,66.10
2022-08-26T18:23:39.072Z,66.20
2022-08-26T18:25:14.215Z,66.10
2022-08-26T18:26:49.419Z,66.00
2022-08-26T18:28:21.575Z,66.10
2022-08-26T18:29:54.472Z,66.20
2022-08-26T18:31:26.846Z,66.20
2022-08-26T18:32:58.656Z,66.20
2022-08-26T18:34:35.465Z,66.20
2022-08-26T18:36:07.397Z,66.20
2022-08-26T18:37:39.679Z,66.10
2022-08-26T18:39:13.424Z,66.10
2022-08-26T18:40:45.585Z,66.00
2022-08-26T18:42:17.304Z,65.90
2022-08-26T18:43:51.005Z,65.80
2022-08-26T18:45:22.865Z,65.70
2022-08-26T18:46:54.569Z,65.60
2022-08-26T18:48:26.641Z,65.60
2022-08-26T18:49:58.401Z,65.60
2022-08-26T18:51:32.546Z,65.60
2022-08-26T18:53:04.257Z,65.60
2022-08-26T18:54:36.122Z,65.60
2022-08-26T18:56:07.902Z,65.60
2022-08-26T18:57:39.694Z,65.70
2022-08-26T18:59:12.617Z,65.50
2022-08-26T19:00:44.310Z,65.50
2022-08-26T19:02:16.117Z,65.50
2022-08-26T19:03:48.686Z,65.50
2022-08-26T19:05:20.920Z,65.50
2022-08-26T19:06:53.110Z,65.60
2022-08-26T19:08:24.934Z,65.80
2022-08-26T19:09:57.142Z,65.70
2022-08-26T19:11:32.614Z,65.70
2022-08-26T19:13:09.858Z,65.80
2022-08-26T19:14:41.888Z,65.70
2022-08-26T19:16:24.336Z,65.60
2022-08-26T19:17:56.835Z,65.70
2022-08-26T19:19:28.822Z,65.70
2022-08-26T19:21:03.073Z,65.80
2022-08-26T19:22:34.912Z,65.80
2022-08-26T19:24:15.241Z,65.80
2022-08-26T19:25:50.319Z,65.70
2022-08-26T19:27:22.075Z,65.70
2022-08-26T19:28:54.160Z,65.60
2022-08-26T19:30:25.986Z,65.40
2022-08-26T19:32:01.982Z,65.50
2022-08-26T19:33:33.718Z,65.30
2022-08-26T19:35:06.134Z,65.30
2022-08-26T19:36:38.707Z,65.30
2022-08-26T19:38:15.351Z,65.20
2022-08-26T19:39:47.844Z,65.20
2022-08-26T19:41:37.264Z,65.20
2022-08-26T19:43:10.720Z,65.10
2022-08-26T19:45:02.728Z,65.00
2022-08-26T19:46:34.773Z,65.10
2022-08-26T19:48:06.905Z,65.20
2022-08-26T19:49:39.105Z,65.00
2022-08-26T19:51:19.089Z,65.00
2022-08-26T19:52:50.887Z,65.00
2022-08-26T19:54:22.810Z,65.10
2022-08-26T19:55:54.518Z,64.90
2022-08-26T19:57:26.464Z,64.80
2022-08-26T19:58:58.382Z,64.90
2022-08-26T20:00:31.715Z,64.80
2022-08-26T20:02:10.842Z,64.80
2022-08-26T20:03:45.928Z,64.60
2022-08-26T20:05:20.370Z,64.60
2022-08-26T20:06:52.097Z,64.60
2022-08-26T20:08:29.663Z,64.50
2022-08-26T20:10:01.659Z,64.40
2022-08-26T20:11:33.427Z,64.50
2022-08-26T20:13:05.115Z,64.40
2022-08-26T20:14:40.359Z,64.20
2022-08-26T20:16:12.333Z,64.40
2022-08-26T20:17:44.596Z,64.40
2022-08-26T20:19:37.480Z,64.40
2022-08-26T20:21:27.845Z,64.40
2022-08-26T20:23:00.073Z,64.40
2022-08-26T20:24:32.495Z,64.40
2022-08-26T20:26:04.631Z,64.20
2022-08-26T20:27:38.254Z,64.30
2022-08-26T20:29:12.557Z,64.30
2022-08-26T20:30:44.232Z,64.40
2022-08-26T20:32:16.506Z,64.40
2022-08-26T20:33:48.667Z,64.40
2022-08-26T20:35:20.520Z,64.40
2022-08-26T20:36:52.919Z,64.40